Fuyang, China
Current Conditions -  °F | °C
As of 3:00 PM on Saturday 20 Dec 2014 (Local Time) from ZSOF Reporting Station
Clear Clear  
Wind Chill: 40°   Ceiling: Unl
Heat Index: 45°   Visibility: 5mi
Dew Point: 18°   Wind: 9mph
Humidity: 34%   Direction: 50°NE
Pressure: 30.36"   Gusts: NA
Location:  32.9°N, 115.82°E
Report Text: ZSOF 200700Z 05004MPS 8000 NSC 07/M08 Q1028 NOSIG
Loading
Personal Weather Stations






























Interactive Weather Map New forecast layout! Learn more

10-Day Weather Forecast

Advertisements
Track Severe Weather on mobile